createdAt,value
2023-04-29T00:02:19.271Z,64.18
2023-04-29T00:04:52.946Z,64.19
2023-04-29T00:07:25.317Z,64.42
2023-04-29T00:09:57.407Z,64.50
2023-04-29T00:12:30.419Z,64.80
2023-04-29T00:15:04.795Z,64.97
2023-04-29T00:17:37.445Z,65.23
2023-04-29T00:20:12.956Z,65.27
2023-04-29T00:22:47.884Z,65.17
2023-04-29T00:25:20.738Z,65.46
2023-04-29T00:27:52.865Z,65.54
2023-04-29T00:30:25.033Z,65.71
2023-04-29T00:32:57.529Z,65.92
2023-04-29T00:35:29.880Z,65.88
2023-04-29T00:38:02.539Z,66.06
2023-04-29T00:40:36.075Z,66.29
2023-04-29T00:43:08.243Z,66.46
2023-04-29T00:45:40.580Z,66.53
2023-04-29T00:48:13.016Z,66.53
2023-04-29T00:50:45.573Z,66.85
2023-04-29T00:53:18.342Z,67.21
2023-04-29T00:55:52.127Z,67.22
2023-04-29T00:58:30.696Z,67.47
2023-04-29T01:01:03.899Z,67.56
2023-04-29T01:03:37.198Z,67.82
2023-04-29T01:06:17.891Z,67.94
2023-04-29T01:09:05.226Z,68.15
2023-04-29T01:11:50.831Z,68.64
2023-04-29T01:14:24.536Z,68.74
2023-04-29T01:17:02.213Z,68.99
2023-04-29T01:19:41.594Z,68.99
2023-04-29T01:22:17.949Z,69.50
2023-04-29T01:24:53.087Z,69.57
2023-04-29T01:27:34.798Z,69.67
2023-04-29T01:30:18.969Z,69.83
2023-04-29T01:32:59.486Z,69.97
2023-04-29T01:35:56.277Z,69.98
2023-04-29T01:38:35.554Z,70.14
2023-04-29T01:41:16.069Z,70.06
2023-04-29T01:43:53.441Z,70.17
2023-04-29T01:46:29.220Z,70.39
2023-04-29T01:49:03.787Z,70.37
2023-04-29T01:51:36.025Z,70.23
2023-04-29T01:54:08.805Z,69.66
2023-04-29T01:56:41.354Z,69.94
2023-04-29T01:59:25.125Z,69.02
2023-04-29T02:02:21.480Z,68.72
2023-04-29T02:05:01.615Z,68.44
2023-04-29T02:07:34.275Z,68.40
2023-04-29T02:10:07.284Z,68.21
2023-04-29T02:12:40.603Z,68.15
2023-04-29T02:15:13.742Z,68.22
2023-04-29T02:17:46.790Z,68.55
2023-04-29T02:20:19.417Z,68.06
2023-04-29T02:22:52.484Z,68.30
2023-04-29T02:25:25.904Z,68.21
2023-04-29T02:27:58.535Z,68.00
2023-04-29T02:30:31.069Z,68.07
2023-04-29T02:33:04.104Z,68.45
2023-04-29T02:35:37.331Z,68.19
2023-04-29T02:38:09.508Z,68.19
2023-04-29T02:40:45.913Z,68.31
2023-04-29T02:43:17.995Z,68.47
2023-04-29T02:45:50.580Z,68.37
2023-04-29T02:48:22.771Z,68.57
2023-04-29T02:50:55.381Z,68.45
2023-04-29T02:53:28.728Z,69.23
2023-04-29T02:56:00.971Z,69.12
2023-04-29T02:58:33.190Z,69.22
2023-04-29T03:01:06.002Z,69.47
2023-04-29T03:03:38.513Z,69.64
2023-04-29T03:06:10.888Z,69.63
2023-04-29T03:08:43.337Z,69.18
2023-04-29T03:11:15.442Z,69.43
2023-04-29T03:13:47.588Z,68.92
2023-04-29T03:16:19.749Z,68.67
2023-04-29T03:18:53.230Z,68.54
2023-04-29T03:21:27.854Z,68.84
2023-04-29T03:24:00.323Z,68.63
2023-04-29T03:26:37.958Z,68.72
2023-04-29T03:29:10.827Z,69.02
2023-04-29T03:31:43.009Z,69.38
2023-04-29T03:34:15.499Z,69.25
2023-04-29T03:36:51.353Z,69.07
2023-04-29T03:39:23.624Z,68.94
2023-04-29T03:41:55.833Z,69.00
2023-04-29T03:44:30.448Z,69.01
2023-04-29T03:47:02.984Z,69.03
2023-04-29T03:49:35.594Z,69.43
2023-04-29T03:52:09.286Z,69.09
2023-04-29T03:54:41.483Z,69.50
2023-04-29T03:57:13.713Z,69.19
2023-04-29T03:59:50.892Z,69.16
2023-04-29T04:02:29.806Z,69.16
2023-04-29T04:05:13.188Z,69.11
2023-04-29T04:07:47.770Z,69.23
2023-04-29T04:10:40.727Z,69.05
2023-04-29T04:13:25.096Z,68.97
2023-04-29T04:15:57.416Z,69.10
2023-04-29T04:18:29.628Z,68.82
2023-04-29T04:21:08.549Z,68.90
2023-04-29T04:23:41.475Z,68.76
2023-04-29T04:26:15.251Z,69.00
2023-04-29T04:28:59.463Z,69.10
2023-04-29T04:31:42.009Z,69.24
2023-04-29T04:34:14.497Z,69.41
2023-04-29T04:36:47.026Z,69.43
2023-04-29T04:39:19.231Z,69.68
2023-04-29T04:41:54.265Z,69.86
2023-04-29T04:44:26.831Z,70.22
2023-04-29T04:47:13.214Z,70.28
2023-04-29T04:50:06.773Z,70.36
2023-04-29T04:52:38.971Z,70.76
2023-04-29T04:55:34.715Z,70.87
2023-04-29T04:58:09.587Z,70.69
2023-04-29T05:00:46.942Z,70.54
2023-04-29T05:03:19.412Z,71.01
2023-04-29T05:05:57.558Z,70.84
2023-04-29T05:08:29.905Z,70.82
2023-04-29T05:11:03.824Z,70.76
2023-04-29T05:13:37.273Z,70.93
2023-04-29T05:16:10.221Z,70.97
2023-04-29T05:18:45.879Z,70.94
2023-04-29T05:21:18.158Z,71.01
2023-04-29T05:23:50.734Z,70.94
2023-04-29T05:26:22.914Z,70.97
2023-04-29T05:28:56.212Z,71.51
2023-04-29T05:31:29.382Z,71.19
2023-04-29T05:34:02.051Z,71.46
2023-04-29T05:36:34.349Z,71.63
2023-04-29T05:39:06.947Z,71.66
2023-04-29T05:41:39.190Z,71.60
2023-04-29T05:44:22.831Z,71.77
2023-04-29T05:46:55.106Z,71.77
2023-04-29T05:49:27.231Z,71.96
2023-04-29T05:55:05.571Z,73.05
2023-04-29T05:57:37.792Z,73.93
2023-04-29T06:00:12.082Z,74.42
2023-04-29T06:02:57.971Z,74.70
2023-04-29T06:05:32.049Z,75.36
2023-04-29T06:08:25.680Z,75.80
2023-04-29T06:10:59.470Z,76.15
2023-04-29T06:13:31.409Z,76.58
2023-04-29T06:16:03.779Z,76.47
2023-04-29T06:18:39.405Z,76.94
2023-04-29T06:21:11.561Z,77.49
2023-04-29T06:23:43.701Z,78.12
2023-04-29T06:26:21.620Z,78.05
2023-04-29T06:28:54.311Z,77.90
2023-04-29T06:31:27.927Z,78.11
2023-04-29T06:34:04.068Z,77.79
2023-04-29T06:36:37.103Z,77.65
2023-04-29T06:39:38.452Z,78.15
2023-04-29T06:42:24.386Z,77.77
2023-04-29T06:45:15.228Z,77.90
2023-04-29T06:48:01.839Z,78.33
2023-04-29T06:50:54.419Z,78.06
2023-04-29T06:53:26.856Z,77.75
2023-04-29T06:56:03.450Z,78.32
2023-04-29T06:58:35.612Z,78.14
2023-04-29T07:01:08.886Z,78.88
2023-04-29T07:03:41.173Z,79.03
2023-04-29T07:06:13.798Z,79.41
2023-04-29T07:08:46.155Z,79.98
2023-04-29T07:11:20.653Z,80.26
2023-04-29T07:13:53.702Z,80.05
2023-04-29T07:16:27.333Z,80.32
2023-04-29T07:18:59.657Z,81.20
2023-04-29T07:21:35.985Z,81.40
2023-04-29T07:24:08.819Z,81.69
2023-04-29T07:26:40.938Z,81.53
2023-04-29T07:29:16.013Z,81.74
2023-04-29T07:31:48.285Z,81.82
2023-04-29T07:34:20.982Z,82.06
2023-04-29T07:36:53.077Z,81.85
2023-04-29T07:39:26.919Z,82.68
2023-04-29T07:42:03.214Z,83.41
2023-04-29T07:44:38.391Z,82.72
2023-04-29T07:47:10.651Z,82.55
2023-04-29T07:49:42.850Z,82.76
2023-04-29T07:52:20.224Z,82.65
2023-04-29T07:54:56.345Z,83.47
2023-04-29T07:57:28.865Z,83.37
2023-04-29T08:00:01.506Z,82.91
2023-04-29T08:02:33.929Z,82.66
2023-04-29T08:05:07.478Z,82.90
2023-04-29T08:07:40.303Z,83.44
2023-04-29T08:10:13.255Z,82.58
2023-04-29T08:12:48.690Z,83.02
2023-04-29T08:15:21.350Z,83.21
2023-04-29T08:17:53.551Z,83.11
2023-04-29T08:20:25.752Z,82.96
2023-04-29T08:22:59.439Z,83.10
2023-04-29T08:25:31.725Z,83.05
2023-04-29T08:28:04.282Z,83.34
2023-04-29T08:30:38.366Z,83.22
2023-04-29T08:33:13.122Z,83.54
2023-04-29T08:35:46.427Z,83.06
2023-04-29T08:38:18.504Z,82.94
2023-04-29T08:40:50.894Z,83.04
2023-04-29T08:43:23.351Z,83.15
2023-04-29T08:45:56.467Z,83.07
2023-04-29T08:48:30.534Z,82.86
2023-04-29T08:51:02.996Z,82.82
2023-04-29T08:56:49.784Z,82.50
2023-04-29T08:59:23.029Z,82.48
2023-04-29T09:01:56.527Z,82.05
2023-04-29T09:04:39.575Z,80.39
2023-04-29T09:07:14.616Z,80.76
2023-04-29T09:09:47.973Z,80.97
2023-04-29T09:12:23.005Z,79.30
2023-04-29T09:18:06.046Z,77.20
2023-04-29T09:20:38.244Z,76.24
2023-04-29T09:23:10.362Z,73.45
2023-04-29T09:25:42.501Z,73.77
2023-04-29T09:28:18.883Z,74.93
2023-04-29T09:30:51.280Z,75.72
2023-04-29T09:33:23.375Z,74.78
2023-04-29T09:35:55.829Z,75.56
2023-04-29T09:38:28.222Z,75.33
2023-04-29T09:41:01.902Z,75.61
2023-04-29T09:43:34.946Z,76.17
2023-04-29T09:46:07.687Z,75.43
2023-04-29T09:48:40.569Z,75.02
2023-04-29T09:51:14.922Z,73.67
2023-04-29T09:53:48.895Z,74.14
2023-04-29T09:56:21.637Z,72.49
2023-04-29T09:58:54.038Z,73.38
2023-04-29T10:01:29.037Z,73.13
2023-04-29T10:04:02.412Z,73.46
2023-04-29T10:06:34.663Z,72.14
2023-04-29T10:09:11.864Z,72.87
2023-04-29T10:11:44.058Z,73.54
2023-04-29T10:14:21.272Z,73.43
2023-04-29T10:17:03.293Z,73.69
2023-04-29T10:19:40.636Z,73.43
2023-04-29T10:22:20.666Z,73.68
2023-04-29T10:24:53.945Z,73.61
2023-04-29T10:27:28.619Z,73.27
2023-04-29T10:30:02.227Z,73.56
2023-04-29T10:32:49.605Z,73.62
2023-04-29T10:35:25.771Z,73.47
2023-04-29T10:38:06.587Z,72.78
2023-04-29T10:40:45.649Z,72.46
2023-04-29T10:43:24.213Z,72.14
2023-04-29T10:46:20.895Z,71.79
2023-04-29T10:48:57.864Z,71.52
2023-04-29T10:51:35.554Z,71.77
2023-04-29T10:54:14.931Z,70.67
2023-04-29T10:56:51.664Z,71.66
2023-04-29T10:59:45.241Z,70.83
2023-04-29T11:02:21.018Z,70.18
2023-04-29T11:05:14.189Z,70.07
2023-04-29T11:07:49.005Z,69.92
2023-04-29T11:10:22.419Z,70.20
2023-04-29T11:13:27.637Z,70.00
2023-04-29T11:16:08.134Z,70.30
2023-04-29T11:19:14.221Z,70.45
2023-04-29T11:21:48.617Z,70.58
2023-04-29T11:24:21.521Z,70.80
2023-04-29T11:27:04.426Z,70.75
2023-04-29T11:29:37.373Z,70.88
2023-04-29T11:32:10.862Z,70.98
2023-04-29T11:34:43.501Z,71.11
2023-04-29T11:37:20.359Z,71.22
2023-04-29T11:39:54.223Z,71.55
2023-04-29T11:42:27.460Z,71.78
2023-04-29T11:45:02.220Z,71.80
2023-04-29T11:47:44.959Z,71.66
2023-04-29T11:50:20.823Z,71.34
2023-04-29T11:52:53.857Z,71.46
2023-04-29T11:55:26.283Z,71.54
2023-04-29T11:58:00.394Z,71.38
2023-04-29T12:00:39.407Z,71.43
2023-04-29T12:03:17.136Z,71.59
2023-04-29T12:05:53.113Z,71.25
2023-04-29T12:08:29.481Z,71.48
2023-04-29T12:11:05.213Z,71.72
2023-04-29T12:13:37.937Z,72.03
2023-04-29T12:16:11.408Z,72.92
2023-04-29T12:18:43.717Z,73.31
2023-04-29T12:21:22.914Z,73.59
2023-04-29T12:23:55.789Z,74.00
2023-04-29T12:26:32.417Z,74.14
2023-04-29T12:29:05.121Z,73.85
2023-04-29T12:31:38.116Z,74.91
2023-04-29T12:34:10.529Z,74.41
2023-04-29T12:36:44.902Z,74.48
2023-04-29T12:39:17.335Z,74.48
2023-04-29T12:41:49.609Z,73.88
2023-04-29T12:44:24.910Z,73.80
2023-04-29T12:46:58.568Z,73.94
2023-04-29T12:49:35.319Z,73.74
2023-04-29T12:52:11.096Z,74.11
2023-04-29T12:54:50.814Z,73.50
2023-04-29T12:57:25.756Z,73.63
2023-04-29T12:59:58.056Z,72.36
2023-04-29T13:02:30.923Z,71.56
2023-04-29T13:05:09.488Z,72.29
2023-04-29T13:07:44.942Z,71.93
2023-04-29T13:10:20.104Z,71.17
2023-04-29T13:12:52.388Z,71.35
2023-04-29T13:15:27.915Z,70.98
2023-04-29T13:18:00.310Z,70.99
2023-04-29T13:20:40.913Z,70.55
2023-04-29T13:23:14.782Z,69.76
2023-04-29T13:25:46.992Z,70.31
2023-04-29T13:28:19.226Z,70.88
2023-04-29T13:30:52.371Z,70.89
2023-04-29T13:33:24.647Z,70.81
2023-04-29T13:35:57.098Z,71.03
2023-04-29T13:38:29.335Z,70.98
2023-04-29T13:41:01.523Z,71.50
2023-04-29T13:43:38.419Z,71.58
2023-04-29T13:46:13.297Z,71.75
2023-04-29T13:54:48.136Z,71.64
2023-04-29T14:04:39.726Z,71.67
2023-04-29T14:07:12.129Z,71.62
2023-04-29T14:09:44.714Z,71.44
2023-04-29T14:12:18.631Z,71.03
2023-04-29T14:14:58.292Z,70.90
2023-04-29T14:17:34.681Z,71.23
2023-04-29T14:20:13.402Z,71.06
2023-04-29T14:22:50.655Z,69.47
2023-04-29T14:25:24.827Z,69.85
2023-04-29T14:28:01.908Z,69.61
2023-04-29T14:30:41.638Z,68.86
2023-04-29T14:33:15.361Z,68.99
2023-04-29T14:35:47.686Z,69.55
2023-04-29T14:38:20.739Z,69.21
2023-04-29T14:43:58.612Z,69.01
2023-04-29T14:46:33.769Z,68.57
2023-04-29T14:49:09.593Z,67.77
2023-04-29T14:51:44.009Z,68.49
2023-04-29T14:54:16.313Z,68.56
2023-04-29T14:56:48.540Z,67.25
2023-04-29T14:59:20.714Z,67.53
2023-04-29T15:01:58.580Z,67.38
2023-04-29T15:04:31.147Z,67.47
2023-04-29T15:07:04.545Z,67.59
2023-04-29T15:09:37.250Z,67.61
2023-04-29T15:12:15.383Z,67.61
2023-04-29T15:14:47.605Z,67.53
2023-04-29T15:17:26.238Z,67.62
2023-04-29T15:19:58.929Z,67.92
2023-04-29T15:22:31.218Z,68.02
2023-04-29T15:25:03.497Z,68.08
2023-04-29T15:27:46.262Z,67.88
2023-04-29T15:30:22.513Z,67.85
2023-04-29T15:33:04.989Z,68.01
2023-04-29T15:35:38.200Z,67.58
2023-04-29T15:38:10.436Z,67.52
2023-04-29T15:40:42.819Z,67.60
2023-04-29T15:43:18.037Z,67.44
2023-04-29T15:45:54.321Z,68.03
2023-04-29T15:48:27.588Z,67.80
2023-04-29T15:50:59.913Z,67.20
2023-04-29T15:53:38.579Z,67.25
2023-04-29T15:56:11.158Z,67.28
2023-04-29T15:58:46.399Z,67.29
2023-04-29T16:01:21.725Z,67.55
2023-04-29T16:03:57.713Z,67.34
2023-04-29T16:06:31.107Z,67.53
2023-04-29T16:09:13.013Z,67.89
2023-04-29T16:11:46.596Z,67.82
2023-04-29T16:14:19.719Z,68.37
2023-04-29T16:16:53.378Z,68.61
2023-04-29T16:19:31.228Z,68.46
2023-04-29T16:22:07.745Z,68.92
2023-04-29T16:24:40.006Z,68.75
2023-04-29T16:27:13.996Z,69.02
2023-04-29T16:29:46.461Z,69.19
2023-04-29T16:32:19.369Z,69.37
2023-04-29T16:34:52.009Z,69.42
2023-04-29T16:37:24.988Z,69.53
2023-04-29T16:39:57.292Z,69.72
2023-04-29T16:42:32.102Z,70.04
2023-04-29T16:45:04.468Z,70.27
2023-04-29T16:47:36.909Z,70.45
2023-04-29T16:50:11.481Z,70.55
2023-04-29T16:52:43.661Z,71.01
2023-04-29T16:55:16.199Z,71.35
2023-04-29T16:57:49.362Z,71.72
2023-04-29T17:00:25.350Z,72.13
2023-04-29T17:02:58.610Z,72.96
2023-04-29T17:05:34.652Z,73.54
2023-04-29T17:08:07.147Z,74.19
2023-04-29T17:10:39.285Z,74.69
2023-04-29T17:13:11.956Z,75.16
2023-04-29T17:15:45.973Z,75.94
2023-04-29T17:18:19.605Z,75.80
2023-04-29T17:20:54.677Z,77.85
2023-04-29T17:23:26.991Z,78.07
2023-04-29T17:25:59.389Z,78.87
2023-04-29T17:28:31.720Z,77.96
2023-04-29T17:34:19.827Z,78.93
2023-04-29T17:36:52.654Z,79.34
2023-04-29T17:39:24.910Z,79.71
2023-04-29T17:41:58.478Z,80.62
2023-04-29T17:44:30.880Z,80.77
2023-04-29T17:47:03.736Z,80.99
2023-04-29T17:49:36.410Z,81.11
2023-04-29T17:52:09.180Z,81.14
2023-04-29T17:54:45.493Z,81.58
2023-04-29T17:57:18.649Z,82.63
2023-04-29T17:59:50.971Z,82.51
2023-04-29T18:02:27.631Z,82.93
2023-04-29T18:05:00.019Z,83.20
2023-04-29T18:07:32.217Z,83.82
2023-04-29T18:10:05.984Z,83.78
2023-04-29T18:12:38.472Z,84.17
2023-04-29T18:15:14.327Z,84.21
2023-04-29T18:17:47.145Z,84.52
2023-04-29T18:20:19.388Z,84.80
2023-04-29T18:22:52.033Z,84.96
2023-04-29T18:25:24.868Z,85.53
2023-04-29T18:28:07.434Z,85.83
2023-04-29T18:30:48.739Z,86.08
2023-04-29T18:33:21.464Z,86.16
2023-04-29T18:35:54.405Z,86.38
2023-04-29T18:38:28.466Z,86.70
2023-04-29T18:41:00.758Z,86.82
2023-04-29T18:43:32.778Z,86.96
2023-04-29T18:46:05.493Z,87.46
2023-04-29T18:48:39.072Z,87.56
2023-04-29T18:51:13.457Z,88.02
2023-04-29T18:53:45.700Z,88.11
2023-04-29T18:56:22.103Z,88.82
2023-04-29T18:58:54.341Z,88.96
2023-04-29T19:01:26.876Z,88.78
2023-04-29T19:03:59.041Z,88.95
2023-04-29T19:06:32.511Z,89.13
2023-04-29T19:09:05.609Z,89.65
2023-04-29T19:11:38.128Z,90.32
2023-04-29T19:14:10.328Z,90.32
2023-04-29T19:16:45.383Z,91.48
2023-04-29T19:19:19.051Z,91.42
2023-04-29T19:21:55.579Z,91.77
2023-04-29T19:24:27.801Z,91.05
2023-04-29T19:27:00.005Z,91.06
2023-04-29T19:29:34.558Z,91.10
2023-04-29T19:32:06.952Z,91.04
2023-04-29T19:34:39.228Z,91.53
2023-04-29T19:37:11.450Z,91.79
2023-04-29T19:39:46.488Z,91.19
2023-04-29T19:42:20.909Z,91.46
2023-04-29T19:44:52.958Z,91.54
2023-04-29T19:47:25.707Z,91.89
2023-04-29T19:49:57.898Z,91.91
2023-04-29T19:52:30.204Z,92.55
2023-04-29T19:55:02.341Z,92.57
2023-04-29T19:57:37.069Z,92.44
2023-04-29T20:00:14.541Z,92.79
2023-04-29T20:02:50.819Z,93.93
2023-04-29T20:05:23.181Z,93.14
2023-04-29T20:07:55.396Z,93.30
2023-04-29T20:10:29.897Z,93.55
2023-04-29T20:13:03.068Z,93.47
2023-04-29T20:15:35.274Z,93.94
2023-04-29T20:18:07.497Z,93.92
2023-04-29T20:20:39.697Z,94.06
2023-04-29T20:23:17.614Z,94.14
2023-04-29T20:25:49.822Z,94.14
2023-04-29T20:28:21.998Z,94.44
2023-04-29T20:30:54.139Z,94.49
2023-04-29T20:33:29.594Z,94.87
2023-04-29T20:36:06.694Z,94.70
2023-04-29T20:38:39.709Z,94.66
2023-04-29T20:41:11.794Z,94.73
2023-04-29T20:43:46.246Z,94.82
2023-04-29T20:46:18.450Z,95.02
2023-04-29T20:48:50.753Z,95.41
2023-04-29T20:51:26.739Z,95.78
2023-04-29T20:53:59.193Z,95.63
2023-04-29T20:56:31.429Z,96.65
2023-04-29T20:59:04.483Z,96.78
2023-04-29T21:01:37.907Z,96.36
2023-04-29T21:04:10.679Z,96.90
2023-04-29T21:06:43.032Z,97.20
2023-04-29T21:09:15.306Z,97.46
2023-04-29T21:11:47.465Z,97.42
2023-04-29T21:14:20.070Z,97.59
2023-04-29T21:16:52.166Z,97.43
2023-04-29T21:19:24.312Z,97.37
2023-04-29T21:21:56.603Z,97.48
2023-04-29T21:24:28.770Z,98.06
2023-04-29T21:27:03.889Z,98.02
2023-04-29T21:29:40.955Z,98.06
2023-04-29T21:32:21.590Z,97.99
2023-04-29T21:34:54.132Z,98.35
2023-04-29T21:37:26.240Z,98.30
2023-04-29T21:40:03.025Z,98.28
2023-04-29T21:42:35.608Z,98.54
2023-04-29T21:45:09.666Z,98.50
2023-04-29T21:47:42.109Z,98.74
2023-04-29T21:50:20.546Z,99.52
2023-04-29T21:52:52.663Z,99.03
2023-04-29T21:55:25.360Z,99.35
2023-04-29T21:57:57.661Z,99.38
2023-04-29T22:00:36.297Z,99.34
2023-04-29T22:03:11.493Z,99.69
2023-04-29T22:05:44.155Z,100.00
2023-04-29T22:08:16.326Z,99.92
2023-04-29T22:10:49.509Z,99.99
2023-04-29T22:13:21.728Z,99.88
2023-04-29T22:15:53.908Z,99.97
2023-04-29T22:18:26.294Z,99.96
2023-04-29T22:20:58.582Z,100.00
2023-04-29T22:23:30.866Z,100.00
2023-04-29T22:26:03.544Z,100.00
2023-04-29T22:28:35.985Z,100.00
2023-04-29T22:31:08.367Z,100.00
2023-04-29T22:33:40.568Z,100.00
2023-04-29T22:36:12.789Z,100.00
2023-04-29T22:38:44.927Z,100.00
2023-04-29T22:41:19.036Z,100.00
2023-04-29T22:43:57.268Z,100.00
2023-04-29T22:49:39.055Z,100.00
2023-04-29T22:52:13.898Z,100.00
2023-04-29T22:54:46.334Z,100.00
2023-04-29T22:57:19.256Z,100.00
2023-04-29T22:59:54.820Z,100.00
2023-04-29T23:02:29.520Z,100.00
2023-04-29T23:05:03.731Z,100.00
2023-04-29T23:07:36.292Z,100.00
2023-04-29T23:10:09.919Z,100.00
2023-04-29T23:12:42.190Z,100.00
2023-04-29T23:15:15.693Z,100.00
2023-04-29T23:17:47.810Z,100.00
2023-04-29T23:20:22.792Z,100.00
2023-04-29T23:22:54.856Z,100.00
2023-04-29T23:25:27.258Z,100.00
2023-04-29T23:28:00.009Z,100.00
2023-04-29T23:30:32.852Z,100.00
2023-04-29T23:33:05.118Z,100.00
2023-04-29T23:35:37.424Z,100.00
2023-04-29T23:38:09.524Z,100.00
2023-04-29T23:40:41.680Z,100.00
2023-04-29T23:43:15.024Z,100.00
2023-04-29T23:45:48.345Z,100.00
2023-04-29T23:48:20.469Z,100.00
2023-04-29T23:50:54.547Z,100.00
2023-04-29T23:53:26.778Z,100.00
2023-04-29T23:55:59.105Z,100.00
2023-04-29T23:58:31.267Z,100.00
